createdAt,value
2018-07-10T00:07:13.285Z,100225.01
2018-07-10T00:12:16.758Z,100215.76
2018-07-10T00:17:20.625Z,100223.36
2018-07-10T00:22:24.097Z,100215.20
2018-07-10T00:27:27.556Z,100212.48
2018-07-10T00:32:31.077Z,100205.98
2018-07-10T00:37:34.883Z,100205.98
2018-07-10T00:42:38.689Z,100197.57
2018-07-10T00:47:42.121Z,100187.25
2018-07-10T00:52:45.637Z,100192.69
2018-07-10T00:57:49.359Z,100188.09
2018-07-10T01:02:52.821Z,100190.27
2018-07-10T01:07:57.405Z,100185.67
2018-07-10T01:13:01.041Z,100182.95
2018-07-10T01:18:04.584Z,100175.90
2018-07-10T01:23:08.074Z,100182.95
2018-07-10T01:28:11.574Z,100165.28
2018-07-10T01:33:15.192Z,100163.41
2018-07-10T01:38:20.365Z,100165.84
2018-07-10T01:43:24.066Z,100151.18
2018-07-10T01:48:27.786Z,100141.70
2018-07-10T01:53:31.282Z,100156.91
2018-07-10T01:58:35.111Z,100166.16
2018-07-10T02:03:38.537Z,100167.52
2018-07-10T02:08:42.069Z,100149.56
2018-07-10T02:13:45.598Z,100137.89
2018-07-10T02:18:49.461Z,100116.44
2018-07-10T02:23:53.940Z,100130.28
2018-07-10T02:28:58.281Z,100125.44
2018-07-10T02:34:02.250Z,100133.04
2018-07-10T02:39:05.989Z,100136.56
2018-07-10T02:44:09.434Z,100135.76
2018-07-10T02:49:20.021Z,100125.45
2018-07-10T02:54:26.266Z,100127.09
2018-07-10T02:59:36.873Z,100136.34
2018-07-10T03:04:41.878Z,100150.19
2018-07-10T03:09:46.578Z,100163.52
2018-07-10T03:14:50.006Z,100180.93
2018-07-10T03:19:53.637Z,100170.06
2018-07-10T03:24:57.615Z,100163.01
2018-07-10T03:30:02.361Z,100162.46
2018-07-10T03:35:05.909Z,100166.57
2018-07-10T03:40:09.532Z,100168.73
2018-07-10T03:45:13.384Z,100174.17
2018-07-10T03:50:16.906Z,100175.27
2018-07-10T03:55:20.385Z,100172.59
2018-07-10T04:00:23.954Z,100170.13
2018-07-10T04:05:27.961Z,100170.13
2018-07-10T04:10:36.724Z,100169.61
2018-07-10T04:15:41.141Z,100167.16
2018-07-10T04:21:28.845Z,100169.61
2018-07-10T04:26:35.199Z,100182.94
2018-07-10T04:31:56.963Z,100171.27
2018-07-10T04:37:06.177Z,100165.57
2018-07-10T04:44:17.322Z,100158.52
2018-07-10T04:49:30.152Z,100174.02
2018-07-10T04:54:40.845Z,100169.94
2018-07-10T04:59:44.741Z,100171.88
2018-07-10T05:04:48.214Z,100174.04
2018-07-10T05:09:51.726Z,100167.25
2018-07-10T05:14:56.681Z,100152.05
2018-07-10T05:20:00.426Z,100149.08
2018-07-10T05:25:03.892Z,100145.03
2018-07-10T05:30:07.369Z,100152.08
2018-07-10T05:35:10.857Z,100154.25
2018-07-10T05:40:14.428Z,100134.98
2018-07-10T05:45:22.589Z,100139.08
2018-07-10T05:50:29.374Z,100151.05
2018-07-10T05:55:33.212Z,100154.31
2018-07-10T06:00:36.708Z,100148.87
2018-07-10T06:05:40.732Z,100176.58
2018-07-10T06:10:44.201Z,100185.53
2018-07-10T06:15:47.810Z,100159.22
2018-07-10T06:20:51.326Z,100170.62
2018-07-10T06:25:54.778Z,100172.53
2018-07-10T06:31:04.070Z,100162.48
2018-07-10T06:36:24.606Z,100157.34
2018-07-10T06:41:28.070Z,100169.27
2018-07-10T06:46:39.849Z,100163.06
2018-07-10T06:51:43.337Z,100167.42
2018-07-10T06:56:48.574Z,100174.73
2018-07-10T07:01:52.112Z,100173.11
2018-07-10T07:06:55.673Z,100173.13
2018-07-10T07:11:59.085Z,100168.21
2018-07-10T07:17:02.570Z,100172.59
2018-07-10T07:22:06.260Z,100185.34
2018-07-10T07:27:09.671Z,100197.28
2018-07-10T07:32:13.400Z,100176.40
2018-07-10T07:37:16.828Z,100166.88
2018-07-10T07:42:20.274Z,100181.75
2018-07-10T07:47:26.900Z,100175.53
2018-07-10T07:52:31.778Z,100179.61
2018-07-10T07:57:35.230Z,100164.15
2018-07-10T08:02:38.674Z,100155.52
2018-07-10T08:07:42.296Z,100151.97
2018-07-10T08:12:45.933Z,100149.80
2018-07-10T08:17:49.405Z,100161.17
2018-07-10T08:22:52.933Z,100139.77
2018-07-10T08:27:56.488Z,100149.01
2018-07-10T08:32:59.996Z,100146.03
2018-07-10T08:38:03.421Z,100146.86
2018-07-10T08:43:06.944Z,100150.38
2018-07-10T08:48:10.381Z,100144.63
2018-07-10T08:53:13.834Z,100152.24
2018-07-10T08:58:17.284Z,100154.12
2018-07-10T09:03:20.737Z,100150.89
2018-07-10T09:08:24.226Z,100146.27
2018-07-10T09:13:27.750Z,100148.67
2018-07-10T09:18:32.086Z,100149.78
2018-07-10T09:23:36.348Z,100156.29
2018-07-10T09:28:39.855Z,100149.20
2018-07-10T09:33:43.542Z,100158.70
2018-07-10T09:38:47.226Z,100151.95
2018-07-10T09:43:51.640Z,100148.19
2018-07-10T09:48:55.261Z,100146.32
2018-07-10T09:53:58.886Z,100143.62
2018-07-10T09:59:02.341Z,100150.11
2018-07-10T10:04:05.910Z,100149.84
2018-07-10T10:09:09.401Z,100155.81
2018-07-10T10:14:13.164Z,100158.25
2018-07-10T10:19:16.576Z,100163.15
2018-07-10T10:24:20.020Z,100154.73
2018-07-10T10:29:23.717Z,100154.47
2018-07-10T10:34:27.421Z,100136.33
2018-07-10T10:39:30.888Z,100145.52
2018-07-10T10:44:34.446Z,100143.89
2018-07-10T10:49:38.171Z,100134.43
2018-07-10T10:54:41.658Z,100139.83
2018-07-10T10:59:45.791Z,100134.16
2018-07-10T11:04:51.010Z,100130.89
2018-07-10T11:09:54.483Z,100128.73
2018-07-10T11:14:58.287Z,100131.16
2018-07-10T11:20:13.769Z,100118.93
2018-07-10T11:25:17.286Z,100134.38
2018-07-10T11:30:20.951Z,100130.88
2018-07-10T11:35:24.882Z,100130.86
2018-07-10T11:40:28.565Z,100136.03
2018-07-10T11:45:32.236Z,100127.32
2018-07-10T11:50:35.686Z,100130.05
2018-07-10T11:55:39.207Z,100132.73
2018-07-10T12:00:42.671Z,100142.49
2018-07-10T12:05:46.254Z,100133.27
2018-07-10T12:10:59.679Z,100132.73
2018-07-10T12:16:03.134Z,100125.15
2018-07-10T12:21:07.303Z,100111.61
2018-07-10T12:26:10.839Z,100116.21
2018-07-10T12:31:14.535Z,100118.63
2018-07-10T12:36:18.049Z,100120.00
2018-07-10T12:41:21.510Z,100110.46
2018-07-10T12:46:25.015Z,100114.24
2018-07-10T12:51:28.490Z,100114.56
2018-07-10T12:56:32.054Z,100110.51
2018-07-10T13:01:35.676Z,100103.24
2018-07-10T13:06:39.154Z,100104.59
2018-07-10T13:11:42.602Z,100107.62
2018-07-10T13:16:46.034Z,100094.58
2018-07-10T13:21:49.540Z,100098.67
2018-07-10T13:26:53.240Z,100091.34
2018-07-10T13:31:56.777Z,100085.66
2018-07-10T13:37:00.290Z,100094.33
2018-07-10T13:42:04.368Z,100088.90
2018-07-10T13:47:08.014Z,100086.44
2018-07-10T13:52:11.975Z,100095.11
2018-07-10T13:57:15.785Z,100091.54
2018-07-10T14:02:19.589Z,100083.67
2018-07-10T14:07:23.204Z,100076.30
2018-07-10T14:12:27.255Z,100070.84
2018-07-10T14:17:30.695Z,100070.80
2018-07-10T14:22:34.315Z,100075.66
2018-07-10T14:27:38.076Z,100067.48
2018-07-10T14:32:41.722Z,100066.36
2018-07-10T14:37:45.421Z,100061.77
2018-07-10T14:42:50.851Z,100056.36
2018-07-10T14:47:55.129Z,100050.39
2018-07-10T14:52:58.650Z,100046.58
2018-07-10T14:58:02.575Z,100049.00
2018-07-10T15:03:06.075Z,100041.73
2018-07-10T15:08:09.911Z,100041.73
2018-07-10T15:13:13.382Z,100041.78
2018-07-10T15:18:22.047Z,100032.26
2018-07-10T15:23:25.664Z,100029.86
2018-07-10T15:28:29.017Z,100023.36
2018-07-10T15:33:32.582Z,100024.13
2018-07-10T15:38:36.286Z,100021.38
2018-07-10T15:43:40.150Z,100015.41
2018-07-10T15:48:43.970Z,100010.47
2018-07-10T15:53:47.475Z,100011.83
2018-07-10T15:58:51.004Z,100004.78
2018-07-10T16:03:55.327Z,100013.47
2018-07-10T16:09:06.926Z,100012.92
2018-07-10T16:14:11.674Z,100011.80
2018-07-10T16:19:18.228Z,100016.19
2018-07-10T16:24:22.565Z,100011.28
2018-07-10T16:29:26.441Z,100022.13
2018-07-10T16:34:30.393Z,100022.97
2018-07-10T16:39:33.980Z,100031.63
2018-07-10T16:44:38.551Z,100030.80
2018-07-10T16:49:45.411Z,100030.25
2018-07-10T16:54:49.227Z,100032.95
2018-07-10T16:59:52.921Z,100034.05
2018-07-10T17:04:56.439Z,100040.00
2018-07-10T17:09:59.989Z,100043.00
2018-07-10T17:15:03.668Z,100050.34
2018-07-10T17:20:11.362Z,100042.20
2018-07-10T17:25:15.751Z,100050.86
2018-07-10T17:30:19.233Z,100050.60
2018-07-10T17:35:22.668Z,100048.86
2018-07-10T17:40:26.401Z,100049.06
2018-07-10T17:45:29.869Z,100053.13
2018-07-10T17:50:33.627Z,100054.64
2018-07-10T17:55:37.358Z,100051.34
2018-07-10T18:00:40.958Z,100058.39
2018-07-10T18:05:44.528Z,100055.34
2018-07-10T18:10:47.953Z,100057.84
2018-07-10T18:15:51.409Z,100065.61
2018-07-10T18:20:55.016Z,100066.93
2018-07-10T18:25:58.476Z,100060.44
2018-07-10T18:31:02.160Z,100054.48
2018-07-10T18:36:05.637Z,100058.30
2018-07-10T18:41:09.057Z,100055.07
2018-07-10T18:46:12.690Z,100056.75
2018-07-10T18:51:16.461Z,100064.92
2018-07-10T18:56:20.409Z,100067.89
2018-07-10T19:01:32.690Z,100074.39
2018-07-10T19:06:36.633Z,100076.30
2018-07-10T19:11:40.855Z,100075.78
2018-07-10T19:16:44.639Z,100076.03
2018-07-10T19:21:55.446Z,100079.56
2018-07-10T19:26:59.894Z,100078.52
2018-07-10T19:32:03.608Z,100076.35
2018-07-10T19:37:07.462Z,100082.84
2018-07-10T19:42:11.133Z,100084.52
2018-07-10T19:47:14.854Z,100088.33
2018-07-10T19:52:18.891Z,100092.92
2018-07-10T19:57:28.537Z,100083.16
2018-07-10T20:02:32.420Z,100082.63
2018-07-10T20:07:47.516Z,100080.19
2018-07-10T20:13:11.546Z,100084.52
2018-07-10T20:20:26.033Z,100082.09
2018-07-10T20:25:52.179Z,100085.64
2018-07-10T20:31:03.566Z,100083.73
2018-07-10T20:36:07.536Z,100082.66
2018-07-10T20:41:12.466Z,100085.14
2018-07-10T20:46:16.910Z,100086.23
2018-07-10T20:51:20.713Z,100088.11
2018-07-10T20:56:32.754Z,100085.69
2018-07-10T21:01:37.789Z,100076.99
2018-07-10T21:07:04.223Z,100070.23
2018-07-10T21:12:14.474Z,100065.91
2018-07-10T21:17:18.869Z,100067.80
2018-07-10T21:24:36.726Z,100063.73
2018-07-10T21:29:51.574Z,100059.15
2018-07-10T21:34:55.242Z,100067.54
2018-07-10T21:41:17.301Z,100065.66
2018-07-10T21:46:59.883Z,100073.02
2018-07-10T21:52:03.334Z,100061.61
2018-07-10T21:57:06.897Z,100064.06
2018-07-10T22:02:10.568Z,100069.23
2018-07-10T22:07:15.590Z,100066.51
2018-07-10T22:12:20.743Z,100063.27
2018-07-10T22:17:27.334Z,100065.72
2018-07-10T22:22:33.036Z,100079.83
2018-07-10T22:27:40.401Z,100086.89
2018-07-10T22:32:49.434Z,100076.88
2018-07-10T22:37:53.448Z,100081.74
2018-07-10T22:42:57.174Z,100080.94
2018-07-10T22:48:00.890Z,100082.02
2018-07-10T22:53:04.367Z,100079.59
2018-07-10T22:58:08.558Z,100086.66
2018-07-10T23:03:21.684Z,100078.78
2018-07-10T23:08:33.841Z,100077.71
2018-07-10T23:13:39.112Z,100080.97
2018-07-10T23:18:44.078Z,100075.83
2018-07-10T23:23:48.573Z,100069.85
2018-07-10T23:28:53.827Z,100072.56
2018-07-10T23:34:01.994Z,100055.52
2018-07-10T23:39:10.857Z,100058.77
2018-07-10T23:44:14.370Z,100050.63
2018-07-10T23:49:18.410Z,100049.56
2018-07-10T23:54:21.938Z,100044.95
2018-07-10T23:59:25.543Z,100044.13
